createdAt,value
2018-01-31T01:52:20.927Z,1008.37
2018-01-31T01:52:58.100Z,1008.35
2018-01-31T01:53:58.086Z,1008.32
2018-01-31T01:54:58.103Z,1008.31
2018-01-31T01:55:58.065Z,1008.35
2018-01-31T01:56:58.053Z,1008.29
2018-01-31T01:57:58.058Z,1008.23
2018-01-31T01:58:58.058Z,1008.20
2018-01-31T01:59:58.037Z,1008.11
2018-01-31T02:00:58.031Z,1008.10
2018-01-31T02:01:57.998Z,1008.06
2018-01-31T02:02:57.998Z,1008.02
2018-01-31T02:03:57.982Z,1008.01
2018-01-31T02:04:57.976Z,1007.93
2018-01-31T02:05:57.978Z,1007.90
2018-01-31T02:06:57.967Z,1007.88
2018-01-31T02:07:57.930Z,1007.83
2018-01-31T02:08:57.921Z,1007.78
2018-01-31T02:09:57.914Z,1007.69
2018-01-31T02:10:57.915Z,1007.71
2018-01-31T02:11:57.884Z,1007.65
2018-01-31T02:12:57.915Z,1007.66
2018-01-31T02:13:57.872Z,1007.61
2018-01-31T02:14:57.846Z,1007.54
2018-01-31T02:15:57.848Z,1007.54
2018-01-31T02:16:57.852Z,1007.48
2018-01-31T02:17:57.845Z,1007.44
2018-01-31T02:18:57.813Z,1007.41
2018-01-31T02:19:57.795Z,1007.35
2018-01-31T02:20:57.782Z,1007.35
2018-01-31T02:21:57.780Z,1007.30
2018-01-31T02:22:57.767Z,1007.30
2018-01-31T02:23:57.755Z,1007.28
2018-01-31T02:24:57.737Z,1007.27
2018-01-31T02:25:57.739Z,1007.21
2018-01-31T02:26:57.714Z,1007.19
2018-01-31T02:27:57.722Z,1007.20
2018-01-31T02:28:57.713Z,1007.16
2018-01-31T02:29:57.687Z,1007.12
2018-01-31T02:30:57.675Z,1007.06
2018-01-31T02:31:57.693Z,1006.99
2018-01-31T02:32:57.651Z,1007.02
2018-01-31T02:33:57.647Z,1007.03
2018-01-31T02:34:57.653Z,1007.04
2018-01-31T02:35:57.621Z,1007.00
2018-01-31T02:36:57.623Z,1006.95
2018-01-31T02:37:57.599Z,1006.90
2018-01-31T02:38:57.593Z,1006.84
2018-01-31T02:39:57.603Z,1006.79
2018-01-31T02:40:57.594Z,1006.79
2018-01-31T02:41:57.586Z,1006.72
2018-01-31T02:42:57.539Z,1006.75
2018-01-31T02:43:57.526Z,1006.68
2018-01-31T02:44:57.547Z,1006.65
2018-01-31T02:45:57.510Z,1006.63
2018-01-31T02:46:57.491Z,1006.57
2018-01-31T02:47:57.487Z,1006.62
2018-01-31T02:48:57.480Z,1006.50
2018-01-31T02:49:57.460Z,1006.50
2018-01-31T02:50:57.467Z,1006.44
2018-01-31T02:51:57.455Z,1006.41
2018-01-31T02:52:57.438Z,1006.38
2018-01-31T02:53:57.419Z,1006.39
2018-01-31T02:54:57.403Z,1006.36
2018-01-31T02:55:57.402Z,1006.37
2018-01-31T02:56:57.410Z,1006.33
2018-01-31T02:57:57.370Z,1006.31
2018-01-31T02:58:57.357Z,1006.16
2018-01-31T02:59:57.365Z,1006.19
2018-01-31T03:00:57.338Z,1006.15
2018-01-31T03:01:57.345Z,1006.19
2018-01-31T03:02:57.341Z,1006.12
2018-01-31T03:03:57.307Z,1006.12
2018-01-31T03:04:57.306Z,1006.07
2018-01-31T03:05:57.294Z,1006.01
2018-01-31T03:06:57.268Z,1006.01
2018-01-31T03:07:57.287Z,1005.98
2018-01-31T03:08:57.267Z,1005.85
2018-01-31T03:09:57.240Z,1005.83
2018-01-31T03:10:57.229Z,1005.79
2018-01-31T03:11:57.217Z,1005.73
2018-01-31T03:12:57.211Z,1005.72
2018-01-31T03:13:57.249Z,1005.66
2018-01-31T03:14:57.179Z,1005.76
2018-01-31T03:15:57.197Z,1005.72
2018-01-31T03:16:57.163Z,1005.65
2018-01-31T03:17:57.157Z,1005.66
2018-01-31T03:18:57.146Z,1005.63
2018-01-31T03:19:57.143Z,1005.62
2018-01-31T03:20:57.117Z,1005.62
2018-01-31T03:21:57.106Z,1005.45
2018-01-31T03:22:57.096Z,1005.42
2018-01-31T03:23:57.088Z,1005.44
2018-01-31T03:24:57.076Z,1005.37
2018-01-31T03:25:57.071Z,1005.33
2018-01-31T03:26:57.052Z,1005.32
2018-01-31T03:27:57.042Z,1005.36
2018-01-31T03:28:57.029Z,1005.26
2018-01-31T03:29:57.014Z,1005.23
2018-01-31T03:30:57.010Z,1005.23
2018-01-31T03:31:57.969Z,1005.24
2018-01-31T03:32:57.037Z,1005.20
2018-01-31T03:33:56.985Z,1005.19
2018-01-31T03:34:56.965Z,1005.21
2018-01-31T03:35:56.956Z,1005.17
2018-01-31T03:36:56.948Z,1005.11
2018-01-31T03:37:56.942Z,1005.06
2018-01-31T03:38:56.920Z,1005.07
2018-01-31T03:39:56.907Z,1005.03
2018-01-31T03:40:56.900Z,1005.00
2018-01-31T03:41:56.884Z,1004.95
2018-01-31T03:42:56.872Z,1004.92
2018-01-31T03:43:56.874Z,1004.89
2018-01-31T03:44:56.884Z,1004.89
2018-01-31T03:45:56.845Z,1004.83
2018-01-31T03:46:56.838Z,1004.87
2018-01-31T03:47:56.828Z,1004.77
2018-01-31T03:48:56.812Z,1004.77
2018-01-31T03:49:56.815Z,1004.75
2018-01-31T03:50:56.795Z,1004.71
2018-01-31T03:51:56.777Z,1004.72
2018-01-31T03:52:56.784Z,1004.73
2018-01-31T03:53:56.769Z,1004.67
2018-01-31T03:54:56.751Z,1004.68
2018-01-31T03:55:56.756Z,1004.44
2018-01-31T03:56:56.742Z,1004.55
2018-01-31T03:57:56.712Z,1004.52
2018-01-31T03:58:56.711Z,1004.50
2018-01-31T03:59:56.699Z,1004.53
2018-01-31T04:00:56.700Z,1004.47
2018-01-31T04:01:56.674Z,1004.44
2018-01-31T04:02:56.663Z,1004.44
2018-01-31T04:03:56.674Z,1004.41
2018-01-31T04:04:56.646Z,1004.36
2018-01-31T04:05:56.626Z,1004.38
2018-01-31T04:06:56.636Z,1004.40
2018-01-31T04:07:56.610Z,1004.31
2018-01-31T04:08:56.597Z,1004.35
2018-01-31T04:09:56.590Z,1004.30
2018-01-31T04:10:56.572Z,1004.27
2018-01-31T04:11:56.566Z,1004.32
2018-01-31T04:12:56.567Z,1004.13
2018-01-31T04:13:56.550Z,1004.20
2018-01-31T04:14:56.535Z,1004.21
2018-01-31T04:15:56.533Z,1004.22
2018-01-31T04:16:56.531Z,1004.14
2018-01-31T04:17:56.501Z,1004.17
2018-01-31T04:18:56.491Z,1004.14
2018-01-31T04:19:56.482Z,1004.07
2018-01-31T04:20:56.476Z,1004.05
2018-01-31T04:21:56.460Z,1004.06
2018-01-31T04:22:56.456Z,1004.01
2018-01-31T04:23:56.440Z,1003.96
2018-01-31T04:24:56.429Z,1003.96
2018-01-31T04:25:56.418Z,1003.96
2018-01-31T04:26:56.408Z,1003.87
2018-01-31T04:27:56.397Z,1003.92
2018-01-31T04:28:56.389Z,1003.90
2018-01-31T04:29:56.374Z,1003.86
2018-01-31T04:32:34.886Z,1003.95
2018-01-31T04:33:33.691Z,1003.78
2018-01-31T04:35:27.748Z,1003.67
2018-01-31T04:36:27.343Z,1003.68
2018-01-31T04:38:21.299Z,1003.70
2018-01-31T04:39:20.953Z,1003.72
2018-01-31T04:41:14.608Z,1003.60
2018-01-31T04:42:14.586Z,1003.58
2018-01-31T04:44:08.273Z,1003.54
2018-01-31T04:45:08.216Z,1003.49
2018-01-31T04:47:02.191Z,1003.51
2018-01-31T04:48:01.905Z,1003.44
2018-01-31T04:49:55.592Z,1003.43
2018-01-31T04:50:55.538Z,1003.41
2018-01-31T04:51:55.545Z,1003.38
2018-01-31T04:52:55.510Z,1003.35
2018-01-31T04:53:55.506Z,1003.40
2018-01-31T04:54:55.491Z,1003.33
2018-01-31T04:55:57.327Z,1003.43
2018-01-31T04:56:55.467Z,1003.37
2018-01-31T04:57:55.452Z,1003.35
2018-01-31T04:58:55.447Z,1003.36
2018-01-31T04:59:55.456Z,1003.26
2018-01-31T05:00:55.441Z,1003.36
2018-01-31T05:01:55.416Z,1003.28
2018-01-31T05:02:55.411Z,1003.22
2018-01-31T05:03:55.391Z,1003.21
2018-01-31T05:04:55.382Z,1003.21
2018-01-31T05:05:55.391Z,1003.16
2018-01-31T05:06:55.365Z,1003.15
2018-01-31T05:07:55.355Z,1003.12
2018-01-31T05:08:55.342Z,1003.07
2018-01-31T05:09:55.332Z,1003.13
2018-01-31T05:10:55.326Z,1003.06
2018-01-31T05:11:55.316Z,1003.00
2018-01-31T05:12:55.301Z,1003.07
2018-01-31T05:13:55.301Z,1002.99
2018-01-31T05:14:55.280Z,1002.99
2018-01-31T05:15:55.271Z,1002.99
2018-01-31T05:16:55.262Z,1002.96
2018-01-31T05:17:55.278Z,1002.97
2018-01-31T05:18:55.262Z,1002.99
2018-01-31T05:19:55.234Z,1002.90
2018-01-31T05:20:55.217Z,1002.90
2018-01-31T05:21:55.230Z,1002.83
2018-01-31T05:22:55.217Z,1002.90
2018-01-31T05:23:55.198Z,1002.90
2018-01-31T05:24:55.189Z,1002.79
2018-01-31T05:25:55.171Z,1002.86
2018-01-31T05:26:55.163Z,1002.73
2018-01-31T05:27:55.153Z,1002.75
2018-01-31T05:28:55.136Z,1002.75
2018-01-31T05:29:55.139Z,1002.70
2018-01-31T05:30:55.123Z,1002.68
2018-01-31T05:31:55.110Z,1002.74
2018-01-31T05:32:55.100Z,1002.66
2018-01-31T05:33:55.090Z,1002.68
2018-01-31T05:34:55.086Z,1002.68
2018-01-31T05:35:55.079Z,1002.63
2018-01-31T05:36:55.065Z,1002.57
2018-01-31T05:37:55.052Z,1002.56
2018-01-31T05:38:55.041Z,1002.51
2018-01-31T05:39:55.049Z,1002.55
2018-01-31T05:40:55.023Z,1002.56
2018-01-31T05:41:55.044Z,1002.60
2018-01-31T05:42:55.007Z,1002.49
2018-01-31T05:43:54.994Z,1002.49
2018-01-31T05:44:54.978Z,1002.52
2018-01-31T05:45:54.971Z,1002.46
2018-01-31T05:46:54.959Z,1002.41
2018-01-31T05:47:54.953Z,1002.48
2018-01-31T05:48:54.943Z,1002.37
2018-01-31T05:49:54.929Z,1002.34
2018-01-31T05:50:54.922Z,1002.39
2018-01-31T05:51:54.910Z,1002.24
2018-01-31T05:52:54.900Z,1002.32
2018-01-31T05:53:54.894Z,1002.34
2018-01-31T05:54:54.882Z,1002.31
2018-01-31T05:55:54.869Z,1002.32
2018-01-31T05:56:54.868Z,1002.28
2018-01-31T05:57:56.851Z,1002.30
2018-01-31T05:58:55.014Z,1002.38
2018-01-31T05:59:54.838Z,1002.31
2018-01-31T06:00:54.828Z,1002.27
2018-01-31T06:01:54.814Z,1002.27
2018-01-31T06:02:54.805Z,1002.30
2018-01-31T06:03:54.791Z,1002.22
2018-01-31T06:04:54.795Z,1002.13
2018-01-31T06:05:54.772Z,1002.13
2018-01-31T06:06:54.790Z,1002.13
2018-01-31T06:07:54.758Z,1002.13
2018-01-31T06:08:54.745Z,1002.16
2018-01-31T06:09:54.751Z,1002.11
2018-01-31T06:10:54.734Z,1002.11
2018-01-31T06:11:54.729Z,1001.98
2018-01-31T06:12:54.706Z,1002.09
2018-01-31T06:13:54.699Z,1002.03
2018-01-31T06:14:54.683Z,1002.04
2018-01-31T06:15:54.677Z,1002.02
2018-01-31T06:16:54.665Z,1001.94
2018-01-31T06:17:54.657Z,1001.94
2018-01-31T06:18:54.775Z,1001.95
2018-01-31T06:19:54.640Z,1001.94
2018-01-31T06:20:54.630Z,1001.91
2018-01-31T06:21:54.618Z,1001.82
2018-01-31T06:22:54.623Z,1001.91
2018-01-31T06:23:54.610Z,1001.89
2018-01-31T06:24:54.596Z,1001.93
2018-01-31T06:25:54.583Z,1001.83
2018-01-31T06:26:54.584Z,1001.86
2018-01-31T06:27:54.562Z,1001.78
2018-01-31T06:28:54.555Z,1001.78
2018-01-31T06:29:54.543Z,1001.79
2018-01-31T06:30:54.529Z,1001.73
2018-01-31T06:31:54.544Z,1001.68
2018-01-31T06:32:54.528Z,1001.59
2018-01-31T06:33:54.502Z,1001.67
2018-01-31T06:34:54.587Z,1001.60
2018-01-31T06:35:54.495Z,1001.61
2018-01-31T06:36:54.473Z,1001.55
2018-01-31T06:37:54.513Z,1001.50
2018-01-31T06:38:54.471Z,1001.42
2018-01-31T06:39:54.443Z,1001.42
2018-01-31T06:40:54.440Z,1001.21
2018-01-31T06:41:54.498Z,1001.20
2018-01-31T06:42:54.416Z,1001.32
2018-01-31T06:43:54.415Z,1001.30
2018-01-31T06:44:54.422Z,1001.25
2018-01-31T06:45:54.386Z,1001.27
2018-01-31T06:46:54.386Z,1001.25
2018-01-31T06:47:54.386Z,1001.22
2018-01-31T06:48:54.360Z,1001.20
2018-01-31T06:49:54.353Z,1001.21
2018-01-31T06:50:54.349Z,1001.15
2018-01-31T06:51:54.341Z,1001.24
2018-01-31T06:52:54.328Z,1001.18
2018-01-31T06:53:54.321Z,1001.27
2018-01-31T06:54:54.311Z,1001.17
2018-01-31T06:55:54.291Z,1001.10
2018-01-31T06:56:54.287Z,1001.15
2018-01-31T06:57:54.279Z,1001.09
2018-01-31T06:58:54.302Z,1001.18
2018-01-31T06:59:54.257Z,1001.06
2018-01-31T07:00:54.250Z,1001.00
2018-01-31T07:01:54.238Z,1001.07
2018-01-31T07:02:54.235Z,1001.14
2018-01-31T07:03:54.244Z,1001.08
2018-01-31T07:04:54.208Z,1001.08
2018-01-31T07:05:54.207Z,1001.05
2018-01-31T07:06:54.206Z,1001.05
2018-01-31T07:07:54.180Z,1000.98
2018-01-31T07:08:54.181Z,1001.01
2018-01-31T07:09:54.189Z,1000.94
2018-01-31T07:10:54.167Z,1000.93
2018-01-31T07:11:54.140Z,1000.91
2018-01-31T07:12:54.133Z,1000.89
2018-01-31T07:13:54.130Z,1000.90
2018-01-31T07:14:54.116Z,1000.87
2018-01-31T07:15:54.127Z,1000.87
2018-01-31T07:16:54.097Z,1000.83
2018-01-31T07:17:54.105Z,1000.79
2018-01-31T07:18:54.087Z,1000.74
2018-01-31T07:19:54.067Z,1000.80
2018-01-31T07:20:54.056Z,1000.87
2018-01-31T07:21:54.073Z,1000.76
2018-01-31T07:22:54.062Z,1000.69
2018-01-31T07:23:54.060Z,1000.71
2018-01-31T07:24:54.028Z,1000.58
2018-01-31T07:25:54.009Z,1000.68
2018-01-31T07:26:54.005Z,1000.73
2018-01-31T07:27:54.000Z,1000.59
2018-01-31T07:28:54.009Z,1000.59
2018-01-31T07:29:53.972Z,1000.64
2018-01-31T07:30:53.967Z,1000.54
2018-01-31T07:31:53.969Z,1000.52
2018-01-31T07:32:53.950Z,1000.54
2018-01-31T07:33:53.931Z,1000.58
2018-01-31T07:34:53.945Z,1000.34
2018-01-31T07:35:53.931Z,1000.53
2018-01-31T07:36:53.908Z,1000.38
2018-01-31T07:37:53.909Z,1000.50
2018-01-31T07:38:53.890Z,1000.37
2018-01-31T07:39:53.883Z,1000.43
2018-01-31T07:40:53.866Z,1000.26
2018-01-31T07:41:53.859Z,1000.48
2018-01-31T07:42:53.854Z,1000.17
2018-01-31T07:43:53.842Z,1000.31
2018-01-31T07:44:53.832Z,1000.27
2018-01-31T07:45:53.822Z,1000.35
2018-01-31T07:46:53.812Z,1000.43
2018-01-31T07:47:53.817Z,1000.35
2018-01-31T07:48:53.811Z,1000.39
2018-01-31T07:49:53.785Z,1000.33
2018-01-31T07:50:53.781Z,1000.32
2018-01-31T07:51:53.768Z,1000.28
2018-01-31T07:52:53.755Z,1000.19
2018-01-31T07:53:53.750Z,1000.25
2018-01-31T07:54:53.752Z,1000.17
2018-01-31T07:55:53.753Z,1000.09
2018-01-31T07:56:53.734Z,1000.08
2018-01-31T07:57:53.712Z,1000.15
2018-01-31T07:58:53.700Z,1000.08
2018-01-31T07:59:53.699Z,1000.02
2018-01-31T08:00:53.707Z,1000.06
2018-01-31T08:01:53.704Z,1000.05
2018-01-31T08:02:53.692Z,999.91
2018-01-31T08:03:53.654Z,999.99
2018-01-31T08:04:53.642Z,999.99
2018-01-31T08:05:53.632Z,1000.01
2018-01-31T08:06:53.638Z,999.93
2018-01-31T08:07:53.634Z,999.92
2018-01-31T08:08:53.605Z,999.89
2018-01-31T08:09:53.597Z,999.79
2018-01-31T08:10:53.585Z,999.94
2018-01-31T08:11:53.575Z,999.89
2018-01-31T08:12:53.577Z,999.84
2018-01-31T08:13:53.572Z,999.91
2018-01-31T08:14:53.552Z,999.95
2018-01-31T08:15:53.546Z,999.89
2018-01-31T08:16:53.530Z,999.93
2018-01-31T08:17:53.534Z,999.80
2018-01-31T08:18:53.513Z,999.87
2018-01-31T08:19:53.511Z,999.85
2018-01-31T08:20:53.505Z,999.81
2018-01-31T08:21:53.482Z,999.74
2018-01-31T08:22:53.474Z,999.76
2018-01-31T08:23:53.463Z,999.76
2018-01-31T08:24:53.455Z,999.67
2018-01-31T08:25:53.457Z,999.72
2018-01-31T08:26:53.461Z,999.73
2018-01-31T08:27:53.427Z,999.68
2018-01-31T08:28:53.420Z,999.74
2018-01-31T08:29:53.430Z,999.70
2018-01-31T08:30:53.412Z,999.64
2018-01-31T08:31:53.398Z,999.58
2018-01-31T08:32:53.397Z,999.50
2018-01-31T08:33:53.383Z,999.63
2018-01-31T08:34:53.360Z,999.58
2018-01-31T08:35:53.349Z,999.53
2018-01-31T08:36:53.341Z,999.55
2018-01-31T08:37:53.332Z,999.65
2018-01-31T08:38:53.328Z,999.52
2018-01-31T08:39:53.350Z,999.60
2018-01-31T08:40:53.317Z,999.56
2018-01-31T08:41:53.292Z,999.58
2018-01-31T08:42:53.296Z,999.53
2018-01-31T08:43:53.282Z,999.51
2018-01-31T08:44:53.270Z,999.48
2018-01-31T08:45:53.260Z,999.44
2018-01-31T08:46:53.269Z,999.47
2018-01-31T08:47:53.250Z,999.33
2018-01-31T08:48:53.228Z,999.43
2018-01-31T08:49:53.223Z,999.43
2018-01-31T08:50:53.214Z,999.38
2018-01-31T08:51:53.240Z,999.47
2018-01-31T08:52:53.192Z,999.33
2018-01-31T08:53:53.191Z,999.42
2018-01-31T08:54:53.174Z,999.36
2018-01-31T08:55:53.169Z,999.36
2018-01-31T08:56:53.152Z,999.19
2018-01-31T08:57:53.147Z,999.29
2018-01-31T08:58:53.177Z,999.29
2018-01-31T08:59:53.130Z,999.17
2018-01-31T09:00:53.118Z,999.20
2018-01-31T09:01:53.109Z,999.18
2018-01-31T09:02:53.098Z,999.18
2018-01-31T09:03:53.088Z,999.12
2018-01-31T09:04:53.111Z,999.12
2018-01-31T09:05:53.074Z,999.27
2018-01-31T09:06:53.070Z,999.09
2018-01-31T09:07:53.054Z,999.20
2018-01-31T09:08:53.049Z,998.90
2018-01-31T09:09:53.044Z,999.09
2018-01-31T09:10:53.025Z,999.10
2018-01-31T09:11:53.019Z,999.08
2018-01-31T09:12:53.022Z,999.03
2018-01-31T09:13:52.996Z,999.11
2018-01-31T09:14:52.990Z,999.10
2018-01-31T09:15:52.980Z,999.04
2018-01-31T09:16:52.970Z,999.03
2018-01-31T09:17:52.963Z,998.92
2018-01-31T09:18:52.947Z,999.06
2018-01-31T09:19:52.948Z,999.02
2018-01-31T09:20:52.934Z,998.93
2018-01-31T09:21:52.926Z,998.92
2018-01-31T09:22:52.914Z,998.92
2018-01-31T09:23:52.932Z,998.92
2018-01-31T09:24:52.894Z,998.93
2018-01-31T09:25:52.897Z,998.89
2018-01-31T09:26:52.876Z,998.98
2018-01-31T09:27:52.869Z,998.93
2018-01-31T09:28:52.857Z,998.84
2018-01-31T09:29:52.861Z,998.79
2018-01-31T09:30:52.861Z,998.78
2018-01-31T09:31:52.844Z,998.86
2018-01-31T09:32:52.839Z,998.82
2018-01-31T09:33:52.834Z,998.74
2018-01-31T09:34:52.807Z,998.77
2018-01-31T09:35:52.793Z,998.70
2018-01-31T09:36:52.801Z,998.68
2018-01-31T09:37:52.776Z,998.66
2018-01-31T09:38:52.778Z,998.63
2018-01-31T09:39:52.757Z,998.68
2018-01-31T09:40:52.751Z,998.54
2018-01-31T09:41:52.736Z,998.58
2018-01-31T09:42:52.743Z,998.51
2018-01-31T09:43:52.723Z,998.53
2018-01-31T09:44:52.744Z,998.49
2018-01-31T09:45:52.705Z,998.46
2018-01-31T09:46:52.691Z,998.44
2018-01-31T09:47:52.679Z,998.39
2018-01-31T09:48:52.683Z,998.42
2018-01-31T09:49:52.679Z,998.39
2018-01-31T09:50:52.683Z,998.39
2018-01-31T09:51:52.650Z,998.34
2018-01-31T09:52:52.650Z,998.39
2018-01-31T09:53:52.646Z,998.39
2018-01-31T09:54:52.624Z,998.34
2018-01-31T09:55:52.629Z,998.20
2018-01-31T09:56:52.622Z,998.19
2018-01-31T09:57:52.589Z,998.32
2018-01-31T09:58:52.605Z,998.23
2018-01-31T09:59:52.593Z,998.22
2018-01-31T10:00:52.557Z,998.26
2018-01-31T10:01:52.549Z,998.30
2018-01-31T10:02:52.553Z,998.19
2018-01-31T10:03:52.537Z,998.20
2018-01-31T10:04:52.544Z,998.19
2018-01-31T10:05:52.539Z,998.10
2018-01-31T10:06:52.504Z,998.11
2018-01-31T10:07:52.495Z,998.14
2018-01-31T10:08:52.490Z,998.12
2018-01-31T10:09:52.489Z,998.11
2018-01-31T10:10:52.469Z,998.14
2018-01-31T10:11:52.463Z,998.04
2018-01-31T10:12:52.448Z,998.01
2018-01-31T10:13:52.435Z,998.00
2018-01-31T10:14:52.446Z,998.05
2018-01-31T10:15:52.446Z,997.89
2018-01-31T10:16:52.429Z,997.94
2018-01-31T10:17:52.409Z,997.95
2018-01-31T10:18:52.404Z,997.87
2018-01-31T10:19:52.384Z,997.88
2018-01-31T10:20:52.389Z,997.98
2018-01-31T10:21:52.382Z,997.80
2018-01-31T10:22:52.353Z,997.83
2018-01-31T10:23:52.350Z,997.82
2018-01-31T10:24:52.355Z,997.76
2018-01-31T10:25:52.328Z,997.86
2018-01-31T10:26:52.318Z,997.88
2018-01-31T10:27:52.327Z,997.70
2018-01-31T10:28:52.297Z,997.64
2018-01-31T10:29:52.288Z,997.63
2018-01-31T10:30:52.281Z,997.64
2018-01-31T10:31:52.272Z,997.68
2018-01-31T10:32:52.257Z,997.61
2018-01-31T10:33:52.272Z,997.66
2018-01-31T10:34:52.246Z,997.53
2018-01-31T10:35:52.232Z,997.60
2018-01-31T10:36:52.228Z,997.51
2018-01-31T10:37:52.230Z,997.50
2018-01-31T10:38:52.202Z,997.45
2018-01-31T10:39:52.219Z,997.57
2018-01-31T10:40:52.205Z,997.42
2018-01-31T10:41:52.178Z,997.57
2018-01-31T10:42:52.163Z,997.42
2018-01-31T10:43:52.156Z,997.46
2018-01-31T10:44:52.146Z,997.44
2018-01-31T10:45:52.155Z,997.44
2018-01-31T10:46:52.157Z,997.37
2018-01-31T10:47:52.120Z,997.49
2018-01-31T10:48:52.129Z,997.24
2018-01-31T10:49:52.101Z,997.44
2018-01-31T10:50:52.094Z,997.21
2018-01-31T10:51:52.093Z,997.12
2018-01-31T10:52:52.074Z,997.31
2018-01-31T10:57:52.044Z,997.11
2018-01-31T10:58:52.016Z,997.06
2018-01-31T10:59:52.022Z,997.03
2018-01-31T11:00:52.007Z,997.02
2018-01-31T11:01:51.987Z,997.08
2018-01-31T11:02:51.979Z,996.94
2018-01-31T11:03:51.982Z,996.99
2018-01-31T11:04:51.957Z,997.01
2018-01-31T11:05:51.973Z,997.04
2018-01-31T11:06:51.947Z,996.97
2018-01-31T11:07:51.931Z,996.98
2018-01-31T11:08:51.920Z,996.80
2018-01-31T11:09:51.935Z,996.92
2018-01-31T11:10:51.906Z,996.81
2018-01-31T11:11:51.918Z,996.71
2018-01-31T11:12:51.882Z,996.82
2018-01-31T11:13:51.887Z,996.68
2018-01-31T11:14:51.893Z,996.69
2018-01-31T11:15:51.857Z,996.71
2018-01-31T11:16:51.848Z,996.70
2018-01-31T11:17:51.863Z,996.74
2018-01-31T11:18:51.826Z,996.68
2018-01-31T11:19:51.833Z,996.61
2018-01-31T11:20:51.813Z,996.44
2018-01-31T11:21:51.799Z,996.57
2018-01-31T11:22:51.792Z,996.53
2018-01-31T11:23:51.784Z,996.59
2018-01-31T11:24:51.785Z,996.38
2018-01-31T11:25:51.780Z,996.50
2018-01-31T11:26:51.753Z,996.43
2018-01-31T11:27:51.741Z,996.33
2018-01-31T11:28:51.781Z,996.30
2018-01-31T11:29:51.728Z,996.39
2018-01-31T11:30:51.721Z,996.23
2018-01-31T11:31:51.734Z,996.33
2018-01-31T11:32:51.697Z,996.31
2018-01-31T11:33:51.688Z,996.22
2018-01-31T11:34:51.675Z,996.36
2018-01-31T11:35:51.670Z,996.03
2018-01-31T11:36:51.657Z,996.21
2018-01-31T11:37:51.652Z,996.30
2018-01-31T11:38:51.641Z,996.17
2018-01-31T11:39:51.627Z,996.16
2018-01-31T11:40:51.621Z,996.17
2018-01-31T11:41:51.612Z,996.01
2018-01-31T11:42:51.606Z,996.14
2018-01-31T11:43:51.640Z,996.01
2018-01-31T11:44:51.585Z,996.00
2018-01-31T11:45:51.575Z,996.05
2018-01-31T11:46:51.572Z,996.07
2018-01-31T11:47:51.559Z,996.02
2018-01-31T11:48:51.555Z,995.99
2018-01-31T11:49:51.536Z,995.92
2018-01-31T11:50:51.527Z,995.95
2018-01-31T11:51:51.533Z,995.84
2018-01-31T11:52:51.508Z,995.83
2018-01-31T11:53:51.513Z,995.82
2018-01-31T11:54:51.491Z,995.77
2018-01-31T11:55:51.483Z,995.79
2018-01-31T11:56:51.470Z,995.40
2018-01-31T11:57:51.478Z,995.65
2018-01-31T11:58:51.453Z,995.64
2018-01-31T11:59:51.455Z,995.71
2018-01-31T12:00:51.429Z,995.51
2018-01-31T12:01:51.424Z,996.45
2018-01-31T12:02:51.416Z,995.63
2018-01-31T12:03:51.420Z,995.28
2018-01-31T12:04:51.394Z,995.59
2018-01-31T12:05:51.390Z,995.66
2018-01-31T12:06:51.385Z,995.60
2018-01-31T12:07:51.365Z,995.65
2018-01-31T12:08:51.361Z,995.60
2018-01-31T12:09:51.345Z,995.62
2018-01-31T12:10:51.353Z,995.67
2018-01-31T12:11:51.330Z,995.59
2018-01-31T12:12:51.325Z,995.57
2018-01-31T12:13:51.321Z,995.56
2018-01-31T12:14:51.299Z,995.67
2018-01-31T12:15:51.292Z,995.63
2018-01-31T12:16:51.300Z,995.55
2018-01-31T12:17:51.277Z,995.50
2018-01-31T12:18:51.258Z,995.50
2018-01-31T12:19:51.252Z,995.50
2018-01-31T12:20:51.237Z,995.43
2018-01-31T12:21:51.246Z,995.59
2018-01-31T12:22:51.245Z,995.46
2018-01-31T12:23:51.214Z,995.54
2018-01-31T12:24:51.228Z,995.64
2018-01-31T12:25:51.199Z,995.65
2018-01-31T12:26:51.183Z,995.78
2018-01-31T12:27:51.189Z,995.69
2018-01-31T12:28:51.186Z,995.57
2018-01-31T12:29:51.175Z,995.68
2018-01-31T12:30:51.157Z,995.87
2018-01-31T12:31:51.139Z,995.93
2018-01-31T12:32:51.137Z,995.58
2018-01-31T12:33:51.114Z,995.90
2018-01-31T12:34:51.110Z,995.76
2018-01-31T12:35:51.102Z,995.73
2018-01-31T12:36:51.092Z,995.74
2018-01-31T12:37:51.079Z,995.72
2018-01-31T12:38:51.067Z,995.68
2018-01-31T12:39:51.058Z,995.62
2018-01-31T12:40:51.045Z,995.70
2018-01-31T12:41:51.034Z,995.64
2018-01-31T12:42:52.907Z,995.66
2018-01-31T12:43:51.019Z,995.67
2018-01-31T12:44:51.008Z,995.70
2018-01-31T12:45:51.011Z,995.65
2018-01-31T12:46:50.995Z,995.65
2018-01-31T12:47:50.980Z,995.65
2018-01-31T12:48:50.969Z,995.58
2018-01-31T12:49:50.957Z,995.38
2018-01-31T12:50:50.951Z,995.45
2018-01-31T12:51:50.961Z,995.35
2018-01-31T12:52:50.938Z,995.51
2018-01-31T12:53:50.925Z,995.54
2018-01-31T12:54:50.907Z,995.57
2018-01-31T12:55:50.903Z,995.57
2018-01-31T12:56:52.426Z,995.52
2018-01-31T12:57:50.872Z,995.45
2018-01-31T12:58:50.864Z,995.49
2018-01-31T12:59:50.856Z,995.45
2018-01-31T13:00:50.863Z,995.55
2018-01-31T13:01:50.845Z,995.47
2018-01-31T13:02:50.827Z,995.44
2018-01-31T13:03:50.812Z,995.41
2018-01-31T13:04:50.818Z,995.48
2018-01-31T13:05:50.817Z,995.42
2018-01-31T13:06:50.787Z,995.36
2018-01-31T13:07:50.785Z,995.49
2018-01-31T13:08:50.766Z,995.21
2018-01-31T13:09:50.752Z,995.32
2018-01-31T13:10:50.747Z,995.36
2018-01-31T13:11:50.756Z,995.19
2018-01-31T13:12:50.722Z,994.96
2018-01-31T13:13:50.712Z,995.17
2018-01-31T13:14:50.741Z,995.20
2018-01-31T13:15:50.690Z,995.22
2018-01-31T13:16:50.682Z,995.15
2018-01-31T13:17:50.684Z,995.21
2018-01-31T13:18:50.686Z,995.13
2018-01-31T13:19:50.654Z,995.15
2018-01-31T13:20:50.643Z,995.10
2018-01-31T13:21:50.628Z,995.13
2018-01-31T13:22:50.620Z,994.96
2018-01-31T13:23:50.636Z,995.03
2018-01-31T13:24:50.608Z,995.01
2018-01-31T13:25:50.595Z,995.01
2018-01-31T13:26:50.582Z,994.99
2018-01-31T13:27:50.578Z,994.83
2018-01-31T13:28:50.558Z,994.89
2018-01-31T13:29:50.552Z,994.85
2018-01-31T13:30:50.550Z,994.67
2018-01-31T13:31:50.541Z,994.78
2018-01-31T13:32:50.526Z,994.64
2018-01-31T13:33:50.511Z,994.66
2018-01-31T13:34:50.507Z,994.72
2018-01-31T13:35:50.489Z,994.72
2018-01-31T13:36:50.482Z,994.76
2018-01-31T13:37:50.480Z,994.53
2018-01-31T13:38:50.479Z,994.65
2018-01-31T13:39:50.451Z,994.56
2018-01-31T13:40:50.441Z,994.44
2018-01-31T13:41:50.451Z,994.50
2018-01-31T13:42:50.426Z,994.45
2018-01-31T13:43:50.406Z,994.35
2018-01-31T13:44:50.398Z,994.39
2018-01-31T13:45:50.386Z,994.46
2018-01-31T13:46:50.420Z,994.43
2018-01-31T13:47:50.366Z,994.39
2018-01-31T13:48:50.360Z,994.31
2018-01-31T13:49:50.348Z,994.47
2018-01-31T13:50:50.341Z,994.37
2018-01-31T13:51:50.331Z,994.28
2018-01-31T13:52:50.320Z,994.26
2018-01-31T13:53:50.310Z,994.25
2018-01-31T13:54:50.302Z,994.22
2018-01-31T13:55:50.288Z,994.28
2018-01-31T13:56:50.278Z,994.14
2018-01-31T13:57:50.278Z,994.19
2018-01-31T13:58:50.261Z,994.12
2018-01-31T13:59:50.251Z,994.19
2018-01-31T14:00:50.251Z,994.15
2018-01-31T14:01:50.227Z,993.97
2018-01-31T14:02:50.216Z,994.00
2018-01-31T14:03:50.204Z,994.00
2018-01-31T14:04:50.192Z,994.04
2018-01-31T14:05:50.192Z,993.97
2018-01-31T14:06:50.182Z,993.96
2018-01-31T14:07:50.167Z,993.99
2018-01-31T14:08:50.152Z,993.94
2018-01-31T14:09:50.146Z,993.93
2018-01-31T14:10:50.132Z,993.97
2018-01-31T14:11:50.131Z,993.93
2018-01-31T14:12:50.113Z,993.95
2018-01-31T14:13:50.105Z,993.93
2018-01-31T14:14:50.095Z,993.91
2018-01-31T14:15:50.082Z,993.92
2018-01-31T14:16:50.071Z,993.82
2018-01-31T14:17:50.062Z,993.77
2018-01-31T14:18:50.056Z,993.93
2018-01-31T14:19:50.047Z,993.84